sensor_id;sensor_type;location;lat;lon;timestamp;pressure;altitude;pressure_sealevel;temperature;humidity
71476;BME280;59286;59.274;17.974;2024-03-02T00:01:53;101062.03;;;3.68;100.00
71476;BME280;59286;59.274;17.974;2024-03-02T00:04:19;101075.38;;;3.77;100.00
71476;BME280;59286;59.274;17.974;2024-03-02T00:06:44;101067.91;;;3.80;100.00
71476;BME280;59286;59.274;17.974;2024-03-02T00:09:10;101066.75;;;3.71;100.00
71476;BME280;59286;59.274;17.974;2024-03-02T00:11:39;101061.25;;;3.68;100.00
71476;BME280;59286;59.274;17.974;2024-03-02T00:14:05;101073.97;;;3.69;100.00
71476;BME280;59286;59.274;17.974;2024-03-02T00:16:31;101064.78;;;3.62;100.00
71476;BME280;59286;59.274;17.974;2024-03-02T00:19:01;101065.50;;;3.57;100.00
71476;BME280;59286;59.274;17.974;2024-03-02T00:21:29;101087.16;;;3.68;100.00
71476;BME280;59286;59.274;17.974;2024-03-02T00:23:56;101086.06;;;3.64;100.00
71476;BME280;59286;59.274;17.974;2024-03-02T00:26:21;101091.03;;;3.65;100.00
71476;BME280;59286;59.274;17.974;2024-03-02T00:28:47;101090.78;;;3.67;100.00
71476;BME280;59286;59.274;17.974;2024-03-02T00:31:15;101068.34;;;3.56;100.00
71476;BME280;59286;59.274;17.974;2024-03-02T00:33:48;101084.81;;;3.66;100.00
71476;BME280;59286;59.274;17.974;2024-03-02T00:36:22;101085.31;;;3.63;100.00
71476;BME280;59286;59.274;17.974;2024-03-02T00:38:51;101090.47;;;3.63;100.00
71476;BME280;59286;59.274;17.974;2024-03-02T00:41:30;101088.19;;;3.67;100.00
71476;BME280;59286;59.274;17.974;2024-03-02T00:44:03;101051.22;;;3.38;100.00
71476;BME280;59286;59.274;17.974;2024-03-02T00:46:36;101089.44;;;3.64;100.00
71476;BME280;59286;59.274;17.974;2024-03-02T00:49:06;101093.53;;;3.60;100.00
71476;BME280;59286;59.274;17.974;2024-03-02T00:51:37;101079.72;;;3.55;100.00
71476;BME280;59286;59.274;17.974;2024-03-02T00:54:09;101068.78;;;3.53;100.00
71476;BME280;59286;59.274;17.974;2024-03-02T00:56:35;101076.31;;;3.54;100.00
71476;BME280;59286;59.274;17.974;2024-03-02T00:59:00;101055.44;;;3.44;100.00
71476;BME280;59286;59.274;17.974;2024-03-02T01:01:26;101085.13;;;3.53;100.00
71476;BME280;59286;59.274;17.974;2024-03-02T01:03:52;101083.88;;;3.56;100.00
71476;BME280;59286;59.274;17.974;2024-03-02T01:06:18;101083.56;;;3.52;100.00
71476;BME280;59286;59.274;17.974;2024-03-02T01:08:44;101085.94;;;3.54;100.00
71476;BME280;59286;59.274;17.974;2024-03-02T01:11:09;101078.53;;;3.46;100.00
71476;BME280;59286;59.274;17.974;2024-03-02T01:13:35;101088.75;;;3.52;100.00
71476;BME280;59286;59.274;17.974;2024-03-02T01:16:01;101088.66;;;3.47;100.00
71476;BME280;59286;59.274;17.974;2024-03-02T01:18:27;101104.75;;;3.49;100.00
71476;BME280;59286;59.274;17.974;2024-03-02T01:20:52;101108.38;;;3.48;100.00
71476;BME280;59286;59.274;17.974;2024-03-02T01:23:20;101072.22;;;3.25;100.00
71476;BME280;59286;59.274;17.974;2024-03-02T01:25:47;101114.00;;;3.45;100.00
71476;BME280;59286;59.274;17.974;2024-03-02T01:28:13;101102.34;;;3.43;100.00
71476;BME280;59286;59.274;17.974;2024-03-02T01:30:38;101107.03;;;3.46;100.00
71476;BME280;59286;59.274;17.974;2024-03-02T01:33:04;101093.91;;;3.36;100.00
71476;BME280;59286;59.274;17.974;2024-03-02T01:35:31;101104.91;;;3.43;100.00
71476;BME280;59286;59.274;17.974;2024-03-02T01:37:56;101099.63;;;3.38;100.00
71476;BME280;59286;59.274;17.974;2024-03-02T01:40:21;101093.13;;;3.35;100.00
71476;BME280;59286;59.274;17.974;2024-03-02T01:42:51;101097.47;;;3.46;100.00
71476;BME280;59286;59.274;17.974;2024-03-02T01:45:17;101060.63;;;3.28;100.00
71476;BME280;59286;59.274;17.974;2024-03-02T01:47:42;101102.16;;;3.49;100.00
71476;BME280;59286;59.274;17.974;2024-03-02T01:50:08;101059.59;;;3.29;100.00
71476;BME280;59286;59.274;17.974;2024-03-02T01:52:34;101087.00;;;3.41;100.00
71476;BME280;59286;59.274;17.974;2024-03-02T01:54:59;101094.88;;;3.46;100.00
71476;BME280;59286;59.274;17.974;2024-03-02T01:57:24;101079.47;;;3.40;100.00
71476;BME280;59286;59.274;17.974;2024-03-02T01:59:50;101070.81;;;3.34;100.00
71476;BME280;59286;59.274;17.974;2024-03-02T02:02:16;101082.91;;;3.45;100.00
71476;BME280;59286;59.274;17.974;2024-03-02T02:04:42;101094.63;;;3.48;100.00
71476;BME280;59286;59.274;17.974;2024-03-02T02:07:07;101069.03;;;3.35;100.00
71476;BME280;59286;59.274;17.974;2024-03-02T02:09:32;101072.41;;;3.35;100.00
71476;BME280;59286;59.274;17.974;2024-03-02T02:11:58;101085.69;;;3.39;100.00
71476;BME280;59286;59.274;17.974;2024-03-02T02:14:24;101078.34;;;3.36;100.00
71476;BME280;59286;59.274;17.974;2024-03-02T02:16:49;101092.03;;;3.48;100.00
71476;BME280;59286;59.274;17.974;2024-03-02T02:19:15;101083.88;;;3.39;100.00
71476;BME280;59286;59.274;17.974;2024-03-02T02:21:43;101086.78;;;3.43;100.00
71476;BME280;59286;59.274;17.974;2024-03-02T02:24:09;101092.97;;;3.42;100.00
71476;BME280;59286;59.274;17.974;2024-03-02T02:26:34;101101.28;;;3.44;100.00
71476;BME280;59286;59.274;17.974;2024-03-02T02:28:59;101083.47;;;3.31;100.00
71476;BME280;59286;59.274;17.974;2024-03-02T02:31:25;101090.22;;;3.32;100.00
71476;BME280;59286;59.274;17.974;2024-03-02T02:33:50;101105.69;;;3.43;100.00
71476;BME280;59286;59.274;17.974;2024-03-02T02:36:15;101073.81;;;3.26;100.00
71476;BME280;59286;59.274;17.974;2024-03-02T02:38:44;101072.47;;;3.24;100.00
71476;BME280;59286;59.274;17.974;2024-03-02T02:41:11;101081.91;;;3.30;100.00
71476;BME280;59286;59.274;17.974;2024-03-02T02:43:38;101094.69;;;3.36;100.00
71476;BME280;59286;59.274;17.974;2024-03-02T02:46:05;101081.66;;;3.31;100.00
71476;BME280;59286;59.274;17.974;2024-03-02T02:48:30;101097.84;;;3.38;100.00
71476;BME280;59286;59.274;17.974;2024-03-02T02:50:55;101098.88;;;3.37;100.00
71476;BME280;59286;59.274;17.974;2024-03-02T02:53:21;101067.53;;;3.22;100.00
71476;BME280;59286;59.274;17.974;2024-03-02T02:55:46;101088.81;;;3.41;100.00
71476;BME280;59286;59.274;17.974;2024-03-02T02:58:12;101088.41;;;3.32;100.00
71476;BME280;59286;59.274;17.974;2024-03-02T03:00:38;101071.75;;;3.28;100.00
71476;BME280;59286;59.274;17.974;2024-03-02T03:03:03;101096.84;;;3.39;100.00
71476;BME280;59286;59.274;17.974;2024-03-02T03:05:29;101089.38;;;3.26;100.00
71476;BME280;59286;59.274;17.974;2024-03-02T03:07:54;101094.38;;;3.33;100.00
71476;BME280;59286;59.274;17.974;2024-03-02T03:10:20;101081.34;;;3.28;100.00
71476;BME280;59286;59.274;17.974;2024-03-02T03:12:47;101077.41;;;3.25;100.00
71476;BME280;59286;59.274;17.974;2024-03-02T03:15:13;101074.50;;;3.22;100.00
71476;BME280;59286;59.274;17.974;2024-03-02T03:17:38;101065.94;;;3.21;100.00
71476;BME280;59286;59.274;17.974;2024-03-02T03:20:04;101083.22;;;3.32;100.00
71476;BME280;59286;59.274;17.974;2024-03-02T03:22:30;101093.13;;;3.35;100.00
71476;BME280;59286;59.274;17.974;2024-03-02T03:25:00;101068.28;;;3.23;100.00
71476;BME280;59286;59.274;17.974;2024-03-02T03:27:25;101034.53;;;3.01;100.00
71476;BME280;59286;59.274;17.974;2024-03-02T03:29:51;101079.75;;;3.27;100.00
71476;BME280;59286;59.274;17.974;2024-03-02T03:32:17;101073.16;;;3.19;100.00
71476;BME280;59286;59.274;17.974;2024-03-02T03:34:43;101049.59;;;3.04;100.00
71476;BME280;59286;59.274;17.974;2024-03-02T03:37:08;101095.06;;;3.28;100.00
71476;BME280;59286;59.274;17.974;2024-03-02T03:39:34;101061.53;;;3.05;100.00
71476;BME280;59286;59.274;17.974;2024-03-02T03:42:03;101090.91;;;3.27;100.00
71476;BME280;59286;59.274;17.974;2024-03-02T03:44:28;101091.72;;;3.28;100.00
71476;BME280;59286;59.274;17.974;2024-03-02T03:46:54;101100.03;;;3.30;100.00
71476;BME280;59286;59.274;17.974;2024-03-02T03:49:19;101089.19;;;3.16;100.00
71476;BME280;59286;59.274;17.974;2024-03-02T03:51:44;101089.66;;;3.13;100.00
71476;BME280;59286;59.274;17.974;2024-03-02T03:54:10;101110.44;;;3.18;100.00
71476;BME280;59286;59.274;17.974;2024-03-02T03:56:36;101117.50;;;3.23;100.00
71476;BME280;59286;59.274;17.974;2024-03-02T03:59:02;101106.81;;;3.19;100.00
71476;BME280;59286;59.274;17.974;2024-03-02T04:01:27;101068.56;;;2.93;100.00
71476;BME280;59286;59.274;17.974;2024-03-02T04:03:52;101105.34;;;3.23;100.00
71476;BME280;59286;59.274;17.974;2024-03-02T04:06:18;101107.94;;;3.23;100.00
71476;BME280;59286;59.274;17.974;2024-03-02T04:08:43;101102.59;;;3.13;100.00
71476;BME280;59286;59.274;17.974;2024-03-02T04:11:09;101097.06;;;3.10;100.00
71476;BME280;59286;59.274;17.974;2024-03-02T04:13:34;101104.16;;;3.14;100.00
71476;BME280;59286;59.274;17.974;2024-03-02T04:15:59;101107.53;;;3.15;100.00
71476;BME280;59286;59.274;17.974;2024-03-02T04:18:25;101085.06;;;3.04;100.00
71476;BME280;59286;59.274;17.974;2024-03-02T04:20:50;101107.53;;;3.15;100.00
71476;BME280;59286;59.274;17.974;2024-03-02T04:23:15;101108.78;;;3.12;100.00
71476;BME280;59286;59.274;17.974;2024-03-02T04:25:41;101081.75;;;2.91;100.00
71476;BME280;59286;59.274;17.974;2024-03-02T04:28:06;101081.41;;;2.88;100.00
71476;BME280;59286;59.274;17.974;2024-03-02T04:30:31;101112.78;;;3.03;100.00
71476;BME280;59286;59.274;17.974;2024-03-02T04:32:57;101110.97;;;3.04;100.00
71476;BME280;59286;59.274;17.974;2024-03-02T04:35:22;101121.88;;;3.06;100.00
71476;BME280;59286;59.274;17.974;2024-03-02T04:37:48;101118.19;;;3.02;100.00
71476;BME280;59286;59.274;17.974;2024-03-02T04:40:13;101109.84;;;3.00;100.00
71476;BME280;59286;59.274;17.974;2024-03-02T04:42:38;101107.88;;;2.90;100.00
71476;BME280;59286;59.274;17.974;2024-03-02T04:45:04;101115.94;;;2.93;100.00
71476;BME280;59286;59.274;17.974;2024-03-02T04:47:29;101095.50;;;2.80;100.00
71476;BME280;59286;59.274;17.974;2024-03-02T04:49:55;101111.00;;;2.92;100.00
71476;BME280;59286;59.274;17.974;2024-03-02T04:52:20;101088.91;;;2.73;100.00
71476;BME280;59286;59.274;17.974;2024-03-02T04:54:46;101119.00;;;2.90;100.00
71476;BME280;59286;59.274;17.974;2024-03-02T04:57:30;101123.47;;;2.95;100.00
71476;BME280;59286;59.274;17.974;2024-03-02T04:59:55;101129.44;;;2.95;100.00
71476;BME280;59286;59.274;17.974;2024-03-02T05:02:20;101103.59;;;2.84;100.00
71476;BME280;59286;59.274;17.974;2024-03-02T05:04:46;101113.59;;;2.92;100.00
71476;BME280;59286;59.274;17.974;2024-03-02T05:07:13;101122.56;;;3.01;100.00
71476;BME280;59286;59.274;17.974;2024-03-02T05:09:39;101125.06;;;2.96;100.00
71476;BME280;59286;59.274;17.974;2024-03-02T05:12:05;101118.47;;;2.88;100.00
71476;BME280;59286;59.274;17.974;2024-03-02T05:14:47;101126.53;;;2.92;100.00
71476;BME280;59286;59.274;17.974;2024-03-02T05:17:13;101112.63;;;2.81;100.00
71476;BME280;59286;59.274;17.974;2024-03-02T05:19:38;101115.44;;;2.80;100.00
71476;BME280;59286;59.274;17.974;2024-03-02T05:22:04;101096.25;;;2.64;100.00
71476;BME280;59286;59.274;17.974;2024-03-02T05:24:29;101136.25;;;2.85;100.00
71476;BME280;59286;59.274;17.974;2024-03-02T05:26:55;101095.13;;;2.60;100.00
71476;BME280;59286;59.274;17.974;2024-03-02T05:29:20;101101.09;;;2.61;100.00
71476;BME280;59286;59.274;17.974;2024-03-02T05:31:46;101138.28;;;2.83;100.00
71476;BME280;59286;59.274;17.974;2024-03-02T05:34:11;101110.50;;;2.67;100.00
71476;BME280;59286;59.274;17.974;2024-03-02T05:36:36;101136.94;;;2.80;100.00
71476;BME280;59286;59.274;17.974;2024-03-02T05:39:04;101117.38;;;2.73;100.00
71476;BME280;59286;59.274;17.974;2024-03-02T05:41:31;101093.91;;;2.63;100.00
71476;BME280;59286;59.274;17.974;2024-03-02T05:43:56;101079.72;;;2.54;100.00
71476;BME280;59286;59.274;17.974;2024-03-02T05:46:22;101135.00;;;2.87;100.00
71476;BME280;59286;59.274;17.974;2024-03-02T05:48:47;101134.31;;;2.92;100.00
71476;BME280;59286;59.274;17.974;2024-03-02T05:51:13;101143.00;;;2.86;100.00
71476;BME280;59286;59.274;17.974;2024-03-02T05:53:38;101138.97;;;2.78;100.00
71476;BME280;59286;59.274;17.974;2024-03-02T05:56:05;101140.88;;;2.83;100.00
71476;BME280;59286;59.274;17.974;2024-03-02T05:58:30;101129.41;;;2.79;100.00
71476;BME280;59286;59.274;17.974;2024-03-02T06:01:14;101124.88;;;2.86;100.00
71476;BME280;59286;59.274;17.974;2024-03-02T06:03:40;101113.28;;;2.88;100.00
71476;BME280;59286;59.274;17.974;2024-03-02T06:06:05;101135.78;;;2.88;100.00
71476;BME280;59286;59.274;17.974;2024-03-02T06:08:31;101120.25;;;2.88;100.00
71476;BME280;59286;59.274;17.974;2024-03-02T06:10:56;101163.31;;;3.06;100.00
71476;BME280;59286;59.274;17.974;2024-03-02T06:13:22;101147.91;;;2.99;100.00
71476;BME280;59286;59.274;17.974;2024-03-02T06:15:48;101133.84;;;2.95;100.00
71476;BME280;59286;59.274;17.974;2024-03-02T06:18:13;101158.34;;;3.04;100.00
71476;BME280;59286;59.274;17.974;2024-03-02T06:20:39;101156.50;;;3.16;100.00
71476;BME280;59286;59.274;17.974;2024-03-02T06:23:04;101147.38;;;3.14;100.00
71476;BME280;59286;59.274;17.974;2024-03-02T06:25:30;101151.66;;;3.20;100.00
71476;BME280;59286;59.274;17.974;2024-03-02T06:27:55;101151.09;;;3.18;100.00
71476;BME280;59286;59.274;17.974;2024-03-02T06:30:20;101139.31;;;3.10;100.00
71476;BME280;59286;59.274;17.974;2024-03-02T06:32:46;101159.19;;;3.21;100.00
71476;BME280;59286;59.274;17.974;2024-03-02T06:35:11;101180.75;;;3.38;100.00
71476;BME280;59286;59.274;17.974;2024-03-02T06:37:38;101165.69;;;3.35;100.00
71476;BME280;59286;59.274;17.974;2024-03-02T06:40:05;101176.19;;;3.45;100.00
71476;BME280;59286;59.274;17.974;2024-03-02T06:42:33;101170.81;;;3.47;100.00
71476;BME280;59286;59.274;17.974;2024-03-02T06:44:59;101178.41;;;3.53;100.00
71476;BME280;59286;59.274;17.974;2024-03-02T06:47:24;101178.34;;;3.48;100.00
71476;BME280;59286;59.274;17.974;2024-03-02T06:49:49;101172.13;;;3.49;100.00
71476;BME280;59286;59.274;17.974;2024-03-02T06:52:15;101199.91;;;3.65;100.00
71476;BME280;59286;59.274;17.974;2024-03-02T06:54:40;101191.66;;;3.68;100.00
71476;BME280;59286;59.274;17.974;2024-03-02T06:57:05;101196.34;;;3.71;100.00
71476;BME280;59286;59.274;17.974;2024-03-02T06:59:31;101171.38;;;3.65;100.00
71476;BME280;59286;59.274;17.974;2024-03-02T07:01:56;101176.41;;;3.72;100.00
71476;BME280;59286;59.274;17.974;2024-03-02T07:04:22;101181.44;;;3.78;100.00
71476;BME280;59286;59.274;17.974;2024-03-02T07:06:47;101188.28;;;3.84;100.00
71476;BME280;59286;59.274;17.974;2024-03-02T07:09:12;101177.81;;;3.79;100.00
71476;BME280;59286;59.274;17.974;2024-03-02T07:11:38;101195.13;;;3.90;100.00
71476;BME280;59286;59.274;17.974;2024-03-02T07:14:03;101181.59;;;3.88;100.00
71476;BME280;59286;59.274;17.974;2024-03-02T07:16:28;101198.75;;;4.06;100.00
71476;BME280;59286;59.274;17.974;2024-03-02T07:18:55;101181.28;;;4.02;100.00
71476;BME280;59286;59.274;17.974;2024-03-02T07:21:22;101190.09;;;4.01;100.00
71476;BME280;59286;59.274;17.974;2024-03-02T07:23:48;101170.84;;;3.97;100.00
71476;BME280;59286;59.274;17.974;2024-03-02T07:26:14;101199.19;;;4.20;100.00
71476;BME280;59286;59.274;17.974;2024-03-02T07:28:44;101198.13;;;4.16;100.00
71476;BME280;59286;59.274;17.974;2024-03-02T07:31:10;101200.53;;;4.22;100.00
71476;BME280;59286;59.274;17.974;2024-03-02T07:33:36;101200.84;;;4.26;100.00
71476;BME280;59286;59.274;17.974;2024-03-02T07:36:01;101193.16;;;4.31;100.00
71476;BME280;59286;59.274;17.974;2024-03-02T07:38:28;101178.44;;;4.20;100.00
71476;BME280;59286;59.274;17.974;2024-03-02T07:40:54;101196.81;;;4.35;100.00
71476;BME280;59286;59.274;17.974;2024-03-02T07:43:20;101207.59;;;4.43;100.00
71476;BME280;59286;59.274;17.974;2024-03-02T07:45:46;101206.66;;;4.49;100.00
71476;BME280;59286;59.274;17.974;2024-03-02T07:48:12;101155.63;;;4.22;100.00
71476;BME280;59286;59.274;17.974;2024-03-02T07:50:38;101182.97;;;4.46;100.00
71476;BME280;59286;59.274;17.974;2024-03-02T07:53:04;101199.28;;;4.63;100.00
71476;BME280;59286;59.274;17.974;2024-03-02T07:55:30;101200.63;;;4.65;100.00
71476;BME280;59286;59.274;17.974;2024-03-02T07:58:00;101181.56;;;4.55;100.00
71476;BME280;59286;59.274;17.974;2024-03-02T08:00:26;101211.31;;;4.69;100.00
71476;BME280;59286;59.274;17.974;2024-03-02T08:02:52;101209.88;;;4.78;100.00
71476;BME280;59286;59.274;17.974;2024-03-02T08:05:18;101221.59;;;4.80;100.00
71476;BME280;59286;59.274;17.974;2024-03-02T08:07:46;101218.47;;;4.78;100.00
71476;BME280;59286;59.274;17.974;2024-03-02T08:10:12;101206.69;;;4.71;100.00
71476;BME280;59286;59.274;17.974;2024-03-02T08:12:38;101162.75;;;4.48;100.00
71476;BME280;59286;59.274;17.974;2024-03-02T08:15:03;101219.25;;;4.79;100.00
71476;BME280;59286;59.274;17.974;2024-03-02T08:17:29;101200.22;;;4.73;100.00
71476;BME280;59286;59.274;17.974;2024-03-02T08:19:55;101209.31;;;4.76;100.00
71476;BME280;59286;59.274;17.974;2024-03-02T08:22:21;101209.88;;;4.78;100.00
71476;BME280;59286;59.274;17.974;2024-03-02T08:24:46;101210.97;;;4.82;100.00
71476;BME280;59286;59.274;17.974;2024-03-02T08:27:12;101220.31;;;4.83;100.00
71476;BME280;59286;59.274;17.974;2024-03-02T08:29:37;101225.09;;;4.91;100.00
71476;BME280;59286;59.274;17.974;2024-03-02T08:32:03;101226.69;;;4.92;100.00
71476;BME280;59286;59.274;17.974;2024-03-02T08:34:29;101233.38;;;4.88;100.00
71476;BME280;59286;59.274;17.974;2024-03-02T08:36:54;101228.09;;;4.83;100.00
71476;BME280;59286;59.274;17.974;2024-03-02T08:39:20;101217.19;;;4.81;100.00
71476;BME280;59286;59.274;17.974;2024-03-02T08:41:46;101219.59;;;4.87;100.00
71476;BME280;59286;59.274;17.974;2024-03-02T08:44:12;101217.06;;;4.92;100.00
71476;BME280;59286;59.274;17.974;2024-03-02T08:46:40;101211.09;;;4.92;100.00
71476;BME280;59286;59.274;17.974;2024-03-02T08:49:06;101209.72;;;4.84;100.00
71476;BME280;59286;59.274;17.974;2024-03-02T08:51:32;101221.56;;;4.97;100.00
71476;BME280;59286;59.274;17.974;2024-03-02T08:53:58;101194.34;;;4.83;100.00
71476;BME280;59286;59.274;17.974;2024-03-02T08:56:26;101209.47;;;4.86;100.00
71476;BME280;59286;59.274;17.974;2024-03-02T08:58:52;101206.28;;;4.79;100.00
71476;BME280;59286;59.274;17.974;2024-03-02T09:01:18;101214.38;;;4.82;100.00
71476;BME280;59286;59.274;17.974;2024-03-02T09:03:44;101203.66;;;4.79;100.00
71476;BME280;59286;59.274;17.974;2024-03-02T09:06:10;101223.31;;;4.91;100.00
71476;BME280;59286;59.274;17.974;2024-03-02T09:08:36;101234.59;;;5.02;100.00
71476;BME280;59286;59.274;17.974;2024-03-02T09:11:02;101206.63;;;4.87;100.00
71476;BME280;59286;59.274;17.974;2024-03-02T09:13:28;101225.53;;;5.05;100.00
71476;BME280;59286;59.274;17.974;2024-03-02T09:15:54;101229.94;;;5.04;100.00
71476;BME280;59286;59.274;17.974;2024-03-02T09:18:19;101206.50;;;4.99;100.00
71476;BME280;59286;59.274;17.974;2024-03-02T09:20:45;101180.91;;;4.86;100.00
71476;BME280;59286;59.274;17.974;2024-03-02T09:23:11;101224.13;;;5.19;100.00
71476;BME280;59286;59.274;17.974;2024-03-02T09:25:36;101202.81;;;5.17;100.00
71476;BME280;59286;59.274;17.974;2024-03-02T09:28:02;101200.53;;;5.20;100.00
71476;BME280;59286;59.274;17.974;2024-03-02T09:30:28;101207.44;;;5.36;100.00
71476;BME280;59286;59.274;17.974;2024-03-02T09:32:53;101223.75;;;5.53;100.00
71476;BME280;59286;59.274;17.974;2024-03-02T09:35:19;101222.63;;;5.44;100.00
71476;BME280;59286;59.274;17.974;2024-03-02T09:37:45;101206.69;;;5.41;100.00
71476;BME280;59286;59.274;17.974;2024-03-02T09:40:10;101240.22;;;5.64;100.00
71476;BME280;59286;59.274;17.974;2024-03-02T09:42:36;101233.69;;;5.61;100.00
71476;BME280;59286;59.274;17.974;2024-03-02T09:45:02;101242.56;;;5.65;100.00
71476;BME280;59286;59.274;17.974;2024-03-02T09:47:28;101230.94;;;5.73;100.00
71476;BME280;59286;59.274;17.974;2024-03-02T09:49:53;101237.91;;;5.67;100.00
71476;BME280;59286;59.274;17.974;2024-03-02T09:52:22;101226.38;;;5.58;100.00
71476;BME280;59286;59.274;17.974;2024-03-02T09:54:47;101232.03;;;5.77;100.00
71476;BME280;59286;59.274;17.974;2024-03-02T09:57:14;101225.38;;;5.59;100.00
71476;BME280;59286;59.274;17.974;2024-03-02T09:59:39;101213.28;;;5.48;100.00
71476;BME280;59286;59.274;17.974;2024-03-02T10:02:05;101221.88;;;5.49;100.00
71476;BME280;59286;59.274;17.974;2024-03-02T10:04:32;101222.06;;;5.42;100.00
71476;BME280;59286;59.274;17.974;2024-03-02T10:09:37;101240.72;;;5.39;100.00
71476;BME280;59286;59.274;17.974;2024-03-02T10:12:10;101241.53;;;5.40;100.00
71476;BME280;59286;59.274;17.974;2024-03-02T10:14:36;101232.22;;;5.22;100.00
71476;BME280;59286;59.274;17.974;2024-03-02T10:17:06;101254.72;;;5.33;100.00
71476;BME280;59286;59.274;17.974;2024-03-02T10:19:32;101237.50;;;5.27;100.00
71476;BME280;59286;59.274;17.974;2024-03-02T10:21:59;101236.41;;;5.23;100.00
71476;BME280;59286;59.274;17.974;2024-03-02T10:24:25;101253.09;;;5.27;100.00
71476;BME280;59286;59.274;17.974;2024-03-02T10:26:51;101226.38;;;5.10;100.00
71476;BME280;59286;59.274;17.974;2024-03-02T10:29:18;101186.03;;;4.81;100.00
71476;BME280;59286;59.274;17.974;2024-03-02T10:31:46;101238.13;;;5.13;100.00
71476;BME280;59286;59.274;17.974;2024-03-02T10:34:13;101248.84;;;5.21;100.00
71476;BME280;59286;59.274;17.974;2024-03-02T10:36:41;101206.47;;;4.94;100.00
71476;BME280;59286;59.274;17.974;2024-03-02T10:39:08;101235.38;;;5.24;100.00
71476;BME280;59286;59.274;17.974;2024-03-02T10:41:35;101247.09;;;5.27;100.00
71476;BME280;59286;59.274;17.974;2024-03-02T10:44:08;101228.28;;;5.15;100.00
71476;BME280;59286;59.274;17.974;2024-03-02T10:46:36;101245.72;;;5.19;100.00
71476;BME280;59286;59.274;17.974;2024-03-02T10:49:03;101239.88;;;5.07;100.00
71476;BME280;59286;59.274;17.974;2024-03-02T10:51:30;101233.09;;;5.06;100.00
71476;BME280;59286;59.274;17.974;2024-03-02T10:53:59;101256.16;;;5.24;100.00
71476;BME280;59286;59.274;17.974;2024-03-02T10:59:24;101239.50;;;5.20;100.00
71476;BME280;59286;59.274;17.974;2024-03-02T11:01:57;101227.88;;;5.06;100.00
71476;BME280;59286;59.274;17.974;2024-03-02T11:04:27;101222.94;;;5.05;100.00
71476;BME280;59286;59.274;17.974;2024-03-02T11:06:56;101250.13;;;5.19;100.00
71476;BME280;59286;59.274;17.974;2024-03-02T11:09:26;101248.38;;;5.24;100.00
71476;BME280;59286;59.274;17.974;2024-03-02T11:12:19;101225.19;;;5.18;100.00
71476;BME280;59286;59.274;17.974;2024-03-02T11:14:48;101229.09;;;5.20;100.00
71476;BME280;59286;59.274;17.974;2024-03-02T11:17:16;101230.66;;;5.21;100.00
71476;BME280;59286;59.274;17.974;2024-03-02T11:19:42;101238.63;;;5.36;100.00
71476;BME280;59286;59.274;17.974;2024-03-02T11:22:09;101232.09;;;5.34;100.00
71476;BME280;59286;59.274;17.974;2024-03-02T11:24:35;101236.47;;;5.28;100.00
71476;BME280;59286;59.274;17.974;2024-03-02T11:27:06;101210.53;;;5.12;100.00
71476;BME280;59286;59.274;17.974;2024-03-02T11:32:20;101229.50;;;5.34;100.00
71476;BME280;59286;59.274;17.974;2024-03-02T11:34:48;101228.19;;;5.31;100.00
71476;BME280;59286;59.274;17.974;2024-03-02T11:37:15;101218.25;;;5.28;100.00
71476;BME280;59286;59.274;17.974;2024-03-02T11:39:43;101220.88;;;5.28;100.00
71476;BME280;59286;59.274;17.974;2024-03-02T11:42:10;101201.03;;;5.22;100.00
71476;BME280;59286;59.274;17.974;2024-03-02T11:44:37;101244.69;;;5.42;100.00
71476;BME280;59286;59.274;17.974;2024-03-02T11:47:06;101226.06;;;5.28;100.00
71476;BME280;59286;59.274;17.974;2024-03-02T11:49:45;101218.72;;;5.20;100.00
71476;BME280;59286;59.274;17.974;2024-03-02T11:52:15;101231.72;;;5.20;100.00
71476;BME280;59286;59.274;17.974;2024-03-02T11:54:44;101245.84;;;5.29;100.00
71476;BME280;59286;59.274;17.974;2024-03-02T11:57:19;101243.47;;;5.28;100.00
71476;BME280;59286;59.274;17.974;2024-03-02T11:59:45;101222.38;;;5.24;100.00
71476;BME280;59286;59.274;17.974;2024-03-02T12:02:23;101241.28;;;5.41;100.00
71476;BME280;59286;59.274;17.974;2024-03-02T12:04:49;101220.16;;;5.33;100.00
71476;BME280;59286;59.274;17.974;2024-03-02T12:07:20;101229.16;;;5.25;100.00
71476;BME280;59286;59.274;17.974;2024-03-02T12:10:01;101243.47;;;5.28;100.00
71476;BME280;59286;59.274;17.974;2024-03-02T12:12:28;101252.66;;;5.35;100.00
71476;BME280;59286;59.274;17.974;2024-03-02T12:14:53;101243.28;;;5.34;100.00
71476;BME280;59286;59.274;17.974;2024-03-02T12:17:21;101218.47;;;5.22;100.00
71476;BME280;59286;59.274;17.974;2024-03-02T12:19:46;101236.47;;;5.28;100.00
71476;BME280;59286;59.274;17.974;2024-03-02T12:22:12;101255.16;;;5.25;100.00
71476;BME280;59286;59.274;17.974;2024-03-02T12:24:38;101250.41;;;5.22;100.00
71476;BME280;59286;59.274;17.974;2024-03-02T12:27:05;101247.91;;;5.27;100.00
71476;BME280;59286;59.274;17.974;2024-03-02T12:29:31;101252.53;;;5.25;100.00
71476;BME280;59286;59.274;17.974;2024-03-02T12:31:56;101237.88;;;5.14;100.00
71476;BME280;59286;59.274;17.974;2024-03-02T12:34:22;101230.78;;;5.10;100.00
71476;BME280;59286;59.274;17.974;2024-03-02T12:36:48;101214.34;;;5.04;100.00
71476;BME280;59286;59.274;17.974;2024-03-02T12:39:17;101248.78;;;5.38;100.00
71476;BME280;59286;59.274;17.974;2024-03-02T12:41:43;101209.88;;;5.21;100.00
71476;BME280;59286;59.274;17.974;2024-03-02T12:44:08;101221.59;;;5.24;100.00
71476;BME280;59286;59.274;17.974;2024-03-02T12:46:34;101224.69;;;5.21;100.00